Time;durP1;ratioP1;P1;durP2;ratioP2;P2;SDS_P1;SDS_P2;PMS_P1;PMS_P2;Temp;Humidity;BMP_temperature;BMP_pressure;BME280_temperature;BME280_humidity;BME280_pressure;Samples;Min_cycle;Max_cycle;Signal;HPM_P1;HPM_P2
2023/06/20 00:00:54;;;;;;;20.20;18.30;;;;;;;-145.41;100.00;58600.66;5023115;28;20061;-75
2023/06/20 00:03:19;;;;;;;20.88;18.77;;;;;;;-145.41;100.00;58600.66;5027629;28;20029;-74
2023/06/20 00:05:45;;;;;;;19.75;17.85;;;;;;;-145.41;100.00;58600.66;5031670;28;20047;-74
2023/06/20 00:08:10;;;;;;;20.50;18.48;;;;;;;-145.41;100.00;58600.66;5029396;28;20436;-75
2023/06/20 00:10:36;;;;;;;19.58;17.48;;;;;;;-145.41;100.00;58600.66;5027812;28;20465;-74
2023/06/20 00:13:02;;;;;;;19.00;17.20;;;;;;;-145.41;100.00;58600.66;5028004;28;20128;-74
2023/06/20 00:15:28;;;;;;;20.27;18.35;;;;;;;-145.41;100.00;58600.66;5027914;28;20033;-75
2023/06/20 00:17:55;;;;;;;20.20;18.30;;;;;;;-145.41;100.00;58600.66;5024439;28;20040;-75
2023/06/20 00:20:20;;;;;;;22.02;19.83;;;;;;;-145.41;100.00;58600.66;5027350;28;20026;-75
2023/06/20 00:22:45;;;;;;;20.33;18.23;;;;;;;-145.41;100.00;58600.66;5026860;28;20036;-75
2023/06/20 00:25:11;;;;;;;17.85;16.05;;;;;;;-145.41;100.00;58600.66;5026325;28;20121;-75
2023/06/20 00:27:36;;;;;;;18.15;16.38;;;;;;;-145.41;100.00;58600.66;5024765;28;20061;-75
2023/06/20 00:30:02;;;;;;;20.63;18.73;;;;;;;-145.41;100.00;58600.66;5026730;28;20033;-75
2023/06/20 00:32:28;;;;;;;21.63;19.40;;;;;;;-145.41;100.00;58600.66;5027752;28;20040;-75
2023/06/20 00:34:54;;;;;;;20.33;18.42;;;;;;;-145.41;100.00;58600.66;5027946;28;20033;-75
2023/06/20 00:37:19;;;;;;;19.00;17.23;;;;;;;-145.41;100.00;58600.66;5024077;28;20041;-75
2023/06/20 00:39:45;;;;;;;20.40;18.27;;;;;;;-145.41;100.00;58600.66;5025123;28;20021;-75
2023/06/20 00:42:23;;;;;;;19.80;17.83;;;;;;;-145.41;100.00;58600.66;5006358;28;20068;-75
2023/06/20 00:44:52;;;;;;;19.48;17.38;;;;;;;-145.41;100.00;58600.66;5027293;28;20029;-75
2023/06/20 00:47:18;;;;;;;19.77;17.70;;;;;;;-145.41;100.00;58600.66;4992199;28;20044;-75
2023/06/20 00:49:49;;;;;;;20.55;18.48;;;;;;;-145.41;100.00;58600.66;5024606;28;20036;-75
2023/06/20 00:52:17;;;;;;;16.90;15.30;;;;;;;-145.41;100.00;58600.66;5024945;28;20049;-75
2023/06/20 00:54:44;;;;;;;18.15;16.38;;;;;;;-145.41;100.00;58600.66;5027027;28;20029;-75
2023/06/20 00:57:12;;;;;;;19.52;17.58;;;;;;;-145.41;100.00;58600.66;5027208;28;20496;-75
2023/06/20 00:59:37;;;;;;;22.13;20.02;;;;;;;-145.41;100.00;58600.66;5008098;28;20064;-75
2023/06/20 01:02:03;;;;;;;19.27;17.38;;;;;;;-145.41;100.00;58600.66;5028002;28;20117;-75
2023/06/20 01:04:29;;;;;;;19.85;17.83;;;;;;;-145.41;100.00;58600.66;5024833;28;20033;-75
2023/06/20 01:07:11;;;;;;;19.60;17.70;;;;;;;-145.41;100.00;58600.66;5013201;28;20037;-75
2023/06/20 01:10:03;;;;;;;18.73;17.00;;;;;;;-145.41;100.00;58600.66;5026075;28;20025;-74
2023/06/20 01:12:55;;;;;;;17.63;16.02;;;;;;;-145.41;100.00;58600.66;5019712;28;20036;-75
2023/06/20 01:15:38;;;;;;;18.00;16.20;;;;;;;-145.41;100.00;58600.66;5027261;28;20111;-75
2023/06/20 01:18:12;;;;;;;20.75;18.73;;;;;;;-145.41;100.00;58600.66;5012192;28;20025;-75
2023/06/20 01:20:53;;;;;;;19.92;17.92;;;;;;;-145.41;100.00;58600.66;5023613;28;20083;-75
2023/06/20 01:23:30;;;;;;;20.70;18.77;;;;;;;-145.41;100.00;58600.66;5007651;28;20116;-74
2023/06/20 01:26:04;;;;;;;19.20;17.17;;;;;;;-145.41;100.00;58600.66;5014603;28;20030;-75
2023/06/20 01:28:38;;;;;;;18.90;17.20;;;;;;;-145.41;100.00;58600.66;5011406;28;20129;-74
2023/06/20 01:31:29;;;;;;;17.73;16.08;;;;;;;-145.41;100.00;58600.66;5005438;28;20033;-75
2023/06/20 01:34:16;;;;;;;20.95;17.85;;;;;;;-145.41;100.00;58600.66;5020748;28;20041;-75
2023/06/20 01:36:46;;;;;;;19.77;17.58;;;;;;;-145.41;100.00;58600.66;5028463;28;20446;-74
2023/06/20 01:39:17;;;;;;;20.42;18.42;;;;;;;-145.41;100.00;58600.66;5023951;28;20025;-75
2023/06/20 01:41:46;;;;;;;20.25;18.20;;;;;;;-145.41;100.00;58600.66;5030926;28;20381;-75
2023/06/20 01:44:14;;;;;;;18.55;16.65;;;;;;;-145.41;100.00;58600.66;5026097;28;20124;-75
2023/06/20 01:46:39;;;;;;;19.45;17.55;;;;;;;-145.41;100.00;58600.66;5026899;28;20395;-75
2023/06/20 01:49:07;;;;;;;20.23;18.17;;;;;;;-145.41;100.00;58600.66;5026277;28;20037;-75
2023/06/20 01:51:33;;;;;;;19.35;17.48;;;;;;;-145.41;100.00;58600.66;5010663;28;20045;-75
2023/06/20 01:54:03;;;;;;;22.67;20.42;;;;;;;-145.41;100.00;58600.66;5030002;28;20447;-74
2023/06/20 01:56:30;;;;;;;19.60;17.80;;;;;;;-145.41;100.00;58600.66;5006718;28;20041;-74
2023/06/20 01:58:58;;;;;;;20.50;18.40;;;;;;;-145.41;100.00;58600.66;5018503;28;20395;-75
2023/06/20 02:01:24;;;;;;;18.88;17.17;;;;;;;-145.41;100.00;58600.66;5012700;28;20064;-75
2023/06/20 02:03:52;;;;;;;19.63;17.75;;;;;;;-145.41;100.00;58600.66;5024588;28;20128;-75
2023/06/20 02:06:19;;;;;;;19.67;17.73;;;;;;;-145.41;100.00;58600.66;5021304;28;20039;-75
2023/06/20 02:08:45;;;;;;;21.33;19.33;;;;;;;-145.41;100.00;58600.66;5007608;28;20036;-75
2023/06/20 02:11:11;;;;;;;20.90;18.90;;;;;;;-145.41;100.00;58600.66;5008633;28;20033;-75
2023/06/20 02:13:36;;;;;;;20.90;18.92;;;;;;;-145.41;100.00;58600.66;5016941;28;20053;-75
2023/06/20 02:16:06;;;;;;;19.50;17.50;;;;;;;-145.41;100.00;58600.66;5012137;28;20029;-75
2023/06/20 02:18:32;;;;;;;19.13;17.25;;;;;;;-145.41;100.00;58600.66;5030092;28;20399;-75
2023/06/20 02:21:04;;;;;;;19.33;17.45;;;;;;;-145.41;100.00;58600.66;5029269;28;20025;-75
2023/06/20 02:23:30;;;;;;;23.27;21.08;;;;;;;-145.41;100.00;58600.66;5030788;28;20033;-75
2023/06/20 02:26:08;;;;;;;18.95;17.05;;;;;;;-145.41;100.00;58600.66;5032143;28;20060;-75
2023/06/20 02:28:38;;;;;;;21.60;19.50;;;;;;;-145.41;100.00;58600.66;5029618;28;20038;-75
2023/06/20 02:31:05;;;;;;;31.63;28.45;;;;;;;-145.41;100.00;58600.66;5024358;28;20030;-75
2023/06/20 02:33:32;;;;;;;34.92;31.33;;;;;;;-145.41;100.00;58600.66;5031967;28;20087;-75
2023/06/20 02:36:01;;;;;;;31.10;28.17;;;;;;;-145.41;100.00;58600.66;5015255;28;20040;-74
2023/06/20 02:38:27;;;;;;;26.48;24.02;;;;;;;-145.41;100.00;58600.66;5029850;28;20033;-75
2023/06/20 02:40:52;;;;;;;28.02;25.33;;;;;;;-145.41;100.00;58600.66;5030398;28;20033;-75
2023/06/20 02:43:17;;;;;;;25.40;22.77;;;;;;;-145.41;100.00;58600.66;5026269;28;20042;-74
2023/06/20 02:45:48;;;;;;;22.13;19.60;;;;;;;-145.41;100.00;58600.66;5013438;28;20022;-74
2023/06/20 02:48:25;;;;;;;21.33;19.20;;;;;;;-145.41;100.00;58600.66;5033860;28;20032;-75
2023/06/20 02:51:05;;;;;;;20.00;18.10;;;;;;;-145.41;100.00;58600.66;5032391;28;20526;-75
2023/06/20 02:53:53;;;;;;;20.88;18.88;;;;;;;-145.41;100.00;58600.66;5014772;28;20520;-75
2023/06/20 02:56:19;;;;;;;20.45;18.55;;;;;;;-145.41;100.00;58600.66;5033122;28;20038;-74
2023/06/20 02:58:52;;;;;;;21.13;19.02;;;;;;;-145.41;100.00;58600.66;5014534;28;20032;-75
2023/06/20 03:01:24;;;;;;;20.90;18.90;;;;;;;-145.41;100.00;58600.66;5033243;28;20037;-74
2023/06/20 03:03:52;;;;;;;20.65;18.65;;;;;;;-145.41;100.00;58600.66;5033396;28;20052;-75
2023/06/20 03:06:27;;;;;;;21.63;19.38;;;;;;;-145.41;100.00;58600.66;5033417;28;20053;-75
2023/06/20 03:08:55;;;;;;;21.52;19.33;;;;;;;-145.41;100.00;58600.66;5016293;28;20041;-75
2023/06/20 03:11:21;;;;;;;22.58;20.40;;;;;;;-145.41;100.00;58600.66;5014983;28;20071;-75
2023/06/20 03:13:47;;;;;;;21.70;19.70;;;;;;;-145.41;100.00;58600.66;5025599;28;20572;-74
2023/06/20 03:16:13;;;;;;;20.88;18.98;;;;;;;-145.41;100.00;58600.66;5014877;28;20044;-74
2023/06/20 03:18:39;;;;;;;21.00;19.00;;;;;;;-145.41;100.00;58600.66;5033003;28;20033;-76
2023/06/20 03:21:06;;;;;;;23.83;20.75;;;;;;;-145.41;100.00;58600.66;5026826;28;20017;-74
2023/06/20 03:23:32;;;;;;;21.25;19.25;;;;;;;-145.41;100.00;58600.66;5014935;28;20037;-74
2023/06/20 03:25:58;;;;;;;20.90;18.88;;;;;;;-145.41;100.00;58600.66;5015358;28;20064;-75
2023/06/20 03:28:24;;;;;;;19.75;17.90;;;;;;;-145.41;100.00;58600.66;5014627;28;20033;-75
2023/06/20 03:30:52;;;;;;;19.40;17.63;;;;;;;-145.41;100.00;58600.66;5014261;28;20071;-75
2023/06/20 03:33:18;;;;;;;22.48;20.10;;;;;;;-145.41;100.00;58600.66;5010947;28;20029;-74
2023/06/20 03:35:43;;;;;;;21.63;19.63;;;;;;;-145.41;100.00;58600.66;5015564;28;20037;-74
2023/06/20 03:38:11;;;;;;;21.05;19.13;;;;;;;-145.41;100.00;58600.66;5014961;28;20025;-75
2023/06/20 03:40:37;;;;;;;25.60;23.13;;;;;;;-145.41;100.00;58600.66;5014475;28;20618;-74
2023/06/20 03:43:02;;;;;;;27.23;24.52;;;;;;;-145.41;100.00;58600.66;5032761;28;20097;-75
2023/06/20 03:45:30;;;;;;;25.67;23.05;;;;;;;-145.41;100.00;58600.66;5015022;28;20029;-74
2023/06/20 03:47:55;;;;;;;28.23;25.58;;;;;;;-145.41;100.00;58600.66;5014596;28;20087;-75
2023/06/20 03:50:20;;;;;;;27.50;24.13;;;;;;;-145.41;100.00;58600.66;5013449;28;20083;-74
2023/06/20 03:52:46;;;;;;;21.58;19.48;;;;;;;-145.41;100.00;58600.66;5014806;28;20412;-75
2023/06/20 03:55:12;;;;;;;24.05;21.60;;;;;;;-145.41;100.00;58600.66;5031456;28;20041;-75
2023/06/20 03:57:37;;;;;;;21.77;19.58;;;;;;;-145.41;100.00;58600.66;5029561;28;20232;-75
2023/06/20 04:00:10;;;;;;;20.27;18.10;;;;;;;-145.41;100.00;58600.66;5031839;28;20029;-74
2023/06/20 04:02:43;;;;;;;21.55;19.45;;;;;;;-145.41;100.00;58600.66;5032341;28;20033;-75
2023/06/20 04:05:09;;;;;;;21.08;19.10;;;;;;;-145.41;100.00;58600.66;5025914;22;20049;-74
2023/06/20 04:07:41;;;;;;;20.08;18.17;;;;;;;-145.41;100.00;58600.66;4992448;28;20034;-75
2023/06/20 04:10:08;;;;;;;18.90;17.20;;;;;;;-145.41;100.00;58600.66;5012389;28;20049;-74
2023/06/20 04:12:34;;;;;;;19.08;17.27;;;;;;;-145.41;100.00;58600.66;4999903;28;20057;-75
2023/06/20 04:14:59;;;;;;;19.75;17.90;;;;;;;-145.41;100.00;58600.66;5021315;28;20076;-75
2023/06/20 04:17:24;;;;;;;18.52;16.67;;;;;;;-145.41;100.00;58600.66;5018882;28;20030;-75
2023/06/20 04:19:50;;;;;;;18.30;16.40;;;;;;;-145.41;100.00;58600.66;5002442;28;20034;-75
2023/06/20 04:22:18;;;;;;;21.17;17.52;;;;;;;-145.41;100.00;58600.66;4999819;28;20417;-75
2023/06/20 04:24:43;;;;;;;18.17;16.38;;;;;;;-145.41;100.00;58600.66;5004982;28;20034;-75
2023/06/20 04:27:10;;;;;;;17.38;15.68;;;;;;;-145.41;100.00;58600.66;4994022;28;20602;-75
2023/06/20 04:29:36;;;;;;;18.00;16.27;;;;;;;-145.41;100.00;58600.66;5004208;28;20021;-75
2023/06/20 04:32:01;;;;;;;17.98;16.25;;;;;;;-145.41;100.00;58600.66;5015184;28;20041;-75
2023/06/20 04:34:26;;;;;;;19.10;17.15;;;;;;;-145.41;100.00;58600.66;4999607;28;20033;-75
2023/06/20 04:36:52;;;;;;;21.83;19.60;;;;;;;-145.41;100.00;58600.66;4998880;28;20378;-75
2023/06/20 04:39:18;;;;;;;24.23;21.88;;;;;;;-145.41;100.00;58600.66;5001334;28;20033;-75
2023/06/20 04:41:44;;;;;;;25.92;23.35;;;;;;;-145.41;100.00;58600.66;5000780;28;20420;-75
2023/06/20 04:44:09;;;;;;;21.52;19.55;;;;;;;-145.41;100.00;58600.66;4998395;28;20079;-75
2023/06/20 04:46:34;;;;;;;19.63;17.73;;;;;;;-145.41;100.00;58600.66;5007291;28;20026;-75
2023/06/20 04:49:03;;;;;;;18.52;16.73;;;;;;;-145.41;100.00;58600.66;5009831;28;20037;-75
2023/06/20 04:51:28;;;;;;;21.05;16.92;;;;;;;-145.41;100.00;58600.66;5016855;28;20088;-75
2023/06/20 04:53:54;;;;;;;20.95;19.00;;;;;;;-145.41;100.00;58600.66;5000961;28;20057;-74
2023/06/20 04:56:20;;;;;;;27.52;24.83;;;;;;;-145.41;100.00;58600.66;5019911;28;20163;-75
2023/06/20 04:58:46;;;;;;;23.60;21.30;;;;;;;-145.41;100.00;58600.66;5003594;28;20038;-75
2023/06/20 05:01:14;;;;;;;21.80;19.65;;;;;;;-145.41;100.00;58600.66;5009562;28;20143;-75
2023/06/20 05:03:39;;;;;;;34.17;30.55;;;;;;;-145.41;100.00;58600.66;5019601;28;20503;-75
2023/06/20 05:06:05;;;;;;;29.77;26.48;;;;;;;-145.41;100.00;58600.66;5022238;28;20041;-75
2023/06/20 05:08:30;;;;;;;27.88;25.23;;;;;;;-145.41;100.00;58600.66;5013202;28;20033;-75
2023/06/20 05:10:56;;;;;;;22.70;20.35;;;;;;;-145.41;100.00;58600.66;4974537;28;20044;-75
2023/06/20 05:13:21;;;;;;;24.85;22.45;;;;;;;-145.41;100.00;58600.66;5005926;28;20072;-75
2023/06/20 05:15:46;;;;;;;23.90;21.70;;;;;;;-145.41;100.00;58600.66;5013710;28;20050;-74
2023/06/20 05:18:12;;;;;;;26.60;23.85;;;;;;;-145.41;100.00;58600.66;5022901;28;20037;-75
2023/06/20 05:20:37;;;;;;;22.00;19.83;;;;;;;-145.41;100.00;58600.66;5016968;28;20061;-75
2023/06/20 05:23:02;;;;;;;22.02;19.83;;;;;;;-145.41;100.00;58600.66;5010447;28;20045;-75
2023/06/20 05:25:28;;;;;;;20.33;18.35;;;;;;;-145.41;100.00;58600.66;5019502;28;20115;-75
2023/06/20 05:27:53;;;;;;;19.33;17.40;;;;;;;-145.41;100.00;58600.66;5022149;28;20056;-75
2023/06/20 05:30:18;;;;;;;22.58;20.35;;;;;;;-145.41;100.00;58600.66;5019794;28;20048;-75
2023/06/20 05:32:44;;;;;;;18.67;16.90;;;;;;;-145.41;100.00;58600.66;5018708;28;20037;-75
2023/06/20 05:35:09;;;;;;;16.60;15.00;;;;;;;-145.41;100.00;58600.66;5018107;28;20029;-75
2023/06/20 05:37:35;;;;;;;16.52;15.02;;;;;;;-145.41;100.00;58600.66;5011596;28;20497;-75
2023/06/20 05:40:00;;;;;;;15.50;14.00;;;;;;;-145.41;100.00;58600.66;5017817;28;20034;-75
2023/06/20 05:42:25;;;;;;;15.50;14.00;;;;;;;-145.41;100.00;58600.66;5012586;28;20038;-75
2023/06/20 05:44:51;;;;;;;16.88;15.23;;;;;;;-145.41;100.00;58600.66;5016922;28;20117;-75
2023/06/20 05:47:20;;;;;;;16.90;15.23;;;;;;;-145.41;100.00;58600.66;5015462;28;20038;-75
2023/06/20 05:49:46;;;;;;;16.35;14.75;;;;;;;-145.41;100.00;58600.66;5014617;28;20033;-75
2023/06/20 05:52:12;;;;;;;20.85;16.50;;;;;;;-145.41;100.00;58600.66;5025615;28;20079;-75
2023/06/20 05:54:37;;;;;;;18.58;16.83;;;;;;;-145.41;100.00;58600.66;5012902;28;20492;-75
2023/06/20 05:57:05;;;;;;;19.65;17.80;;;;;;;-145.41;100.00;58600.66;5013842;28;20041;-75
2023/06/20 05:59:31;;;;;;;22.50;20.17;;;;;;;-145.41;100.00;58600.66;5017097;28;20030;-75
2023/06/20 06:01:56;;;;;;;18.30;16.42;;;;;;;-145.41;100.00;58600.66;5014789;28;20037;-75
2023/06/20 06:04:22;;;;;;;18.00;15.15;;;;;;;-145.41;100.00;58600.66;5018941;28;20121;-75
2023/06/20 06:06:47;;;;;;;21.35;19.17;;;;;;;-145.41;100.00;58600.66;5000275;28;20423;-75
2023/06/20 06:09:14;;;;;;;17.88;16.27;;;;;;;-145.41;100.00;58600.66;5018959;28;20037;-75
2023/06/20 06:11:40;;;;;;;16.83;14.98;;;;;;;-145.41;100.00;58600.66;5024726;28;20030;-75
2023/06/20 06:14:05;;;;;;;18.65;16.65;;;;;;;-145.41;100.00;58600.66;5014540;28;20519;-75
2023/06/20 06:16:31;;;;;;;18.02;16.13;;;;;;;-145.41;100.00;58600.66;5024637;28;20034;-75
2023/06/20 06:18:56;;;;;;;16.67;14.75;;;;;;;-145.41;100.00;58600.66;5017162;28;20037;-75
2023/06/20 06:21:21;;;;;;;14.93;13.43;;;;;;;-145.41;100.00;58600.66;5004905;28;20038;-75
2023/06/20 06:23:47;;;;;;;17.73;15.98;;;;;;;-145.41;100.00;58600.66;5018396;28;20048;-75
2023/06/20 06:26:13;;;;;;;15.25;13.73;;;;;;;-145.41;100.00;58600.66;4999640;28;20034;-75
2023/06/20 06:28:38;;;;;;;14.77;13.30;;;;;;;-145.41;100.00;58600.66;5008827;28;20080;-75
2023/06/20 06:31:13;;;;;;;14.05;12.73;;;;;;;-145.41;100.00;58600.66;5013788;28;20042;-75
2023/06/20 06:33:40;;;;;;;14.25;12.63;;;;;;;-145.41;100.00;58600.66;5018518;28;20121;-75
2023/06/20 06:36:08;;;;;;;13.30;11.75;;;;;;;-145.41;100.00;58600.66;5013152;28;20350;-75
2023/06/20 06:38:33;;;;;;;14.52;13.07;;;;;;;-145.41;100.00;58600.66;5002440;28;20032;-75
2023/06/20 06:40:59;;;;;;;13.50;12.18;;;;;;;-145.41;100.00;58600.66;5017000;28;20429;-75
2023/06/20 06:43:25;;;;;;;16.17;14.73;;;;;;;-145.41;100.00;58600.66;5023178;28;20411;-75
2023/06/20 06:45:51;;;;;;;12.88;11.38;;;;;;;-145.41;100.00;58600.66;4997092;28;20044;-75
2023/06/20 06:48:17;;;;;;;14.90;13.50;;;;;;;-145.41;100.00;58600.66;5021949;28;20022;-75
2023/06/20 06:50:43;;;;;;;16.80;14.60;;;;;;;-145.41;100.00;58600.66;5017595;28;20512;-75
2023/06/20 06:53:10;;;;;;;15.73;14.13;;;;;;;-145.41;100.00;58600.66;5012650;28;20468;-75
2023/06/20 06:55:35;;;;;;;12.60;11.40;;;;;;;-145.41;100.00;58600.66;4997398;28;20456;-75
2023/06/20 06:58:00;;;;;;;12.57;11.30;;;;;;;-145.41;100.00;58600.66;5018980;28;20038;-75
2023/06/20 07:00:26;;;;;;;14.98;13.57;;;;;;;-145.41;100.00;58600.66;5017433;28;20055;-75
2023/06/20 07:02:51;;;;;;;11.70;9.40;;;;;;;-145.41;100.00;58600.66;5024142;28;20488;-75
2023/06/20 07:05:16;;;;;;;10.35;9.35;;;;;;;-145.41;100.00;58600.66;5024560;28;20492;-75
2023/06/20 07:07:42;;;;;;;10.23;9.23;;;;;;;-145.41;100.00;58600.66;5017656;28;20029;-76
2023/06/20 07:10:08;;;;;;;13.02;10.15;;;;;;;-145.41;100.00;58600.66;5002239;28;20508;-75
2023/06/20 07:12:34;;;;;;;14.98;13.48;;;;;;;-145.41;100.00;58600.66;4984586;28;20034;-76
2023/06/20 07:14:59;;;;;;;10.77;9.63;;;;;;;-145.41;100.00;58600.66;5020902;28;20057;-76
2023/06/20 07:17:25;;;;;;;12.32;11.13;;;;;;;-145.41;100.00;58600.66;5017882;28;20029;-75
2023/06/20 07:19:51;;;;;;;11.15;9.23;;;;;;;-145.41;100.00;58600.66;5017618;28;20061;-76
2023/06/20 07:22:17;;;;;;;10.27;9.27;;;;;;;-145.41;100.00;58600.66;5019957;28;20044;-75
2023/06/20 07:24:43;;;;;;;10.00;8.98;;;;;;;-145.41;100.00;58600.66;5020434;28;20034;-76
2023/06/20 07:27:08;;;;;;;10.07;8.77;;;;;;;-145.41;100.00;58600.66;5019241;28;20505;-76
2023/06/20 07:29:33;;;;;;;9.80;8.90;;;;;;;-145.41;100.00;58600.66;5019967;28;20107;-76
2023/06/20 07:31:58;;;;;;;15.63;8.43;;;;;;;-145.41;100.00;58600.66;5000783;28;20026;-75
2023/06/20 07:34:24;;;;;;;10.35;8.63;;;;;;;-145.41;100.00;58600.66;5026852;28;20488;-75
2023/06/20 07:36:49;;;;;;;15.82;9.38;;;;;;;-145.41;100.00;58600.66;4997520;28;20524;-76
2023/06/20 07:39:14;;;;;;;10.60;9.18;;;;;;;-145.41;100.00;58600.66;5020892;28;20704;-75
2023/06/20 07:41:40;;;;;;;10.65;9.32;;;;;;;-145.41;100.00;58600.66;5004375;28;20474;-75
2023/06/20 07:44:07;;;;;;;10.85;9.18;;;;;;;-145.41;100.00;58600.66;5022751;28;20512;-75
2023/06/20 07:46:32;;;;;;;9.93;8.93;;;;;;;-145.41;100.00;58600.66;5023810;28;20083;-75
2023/06/20 07:48:58;;;;;;;10.13;8.63;;;;;;;-145.41;100.00;58600.66;5015284;28;20500;-76
2023/06/20 07:51:23;;;;;;;10.77;9.63;;;;;;;-145.41;100.00;58600.66;5017884;28;20056;-75
2023/06/20 07:53:48;;;;;;;10.02;9.02;;;;;;;-145.41;100.00;58600.66;5022308;28;20399;-75
2023/06/20 07:56:14;;;;;;;11.38;10.07;;;;;;;-145.41;100.00;58600.66;5010263;28;20045;-76
2023/06/20 07:58:41;;;;;;;9.82;8.82;;;;;;;-145.41;100.00;58600.66;5016381;28;20026;-75
2023/06/20 08:01:07;;;;;;;12.77;11.55;;;;;;;-145.41;100.00;58600.66;5016047;28;20064;-76
2023/06/20 08:03:33;;;;;;;12.20;9.48;;;;;;;-145.41;100.00;58600.66;5025227;28;20385;-75
2023/06/20 08:05:58;;;;;;;12.15;9.35;;;;;;;-145.41;100.00;58600.66;5020937;28;20124;-75
2023/06/20 08:08:24;;;;;;;12.38;10.23;;;;;;;-145.41;100.00;58600.66;5016262;28;20029;-76
2023/06/20 08:10:49;;;;;;;12.93;10.57;;;;;;;-145.41;100.00;58600.66;5024147;28;20512;-75
2023/06/20 08:13:14;;;;;;;15.25;9.15;;;;;;;-145.41;100.00;58600.66;5019339;28;20053;-76
2023/06/20 08:15:40;;;;;;;13.18;11.18;;;;;;;-145.41;100.00;58600.66;5012443;28;20038;-75
2023/06/20 08:18:05;;;;;;;11.73;10.63;;;;;;;-145.41;100.00;58600.66;5022498;28;20052;-75
2023/06/20 08:20:30;;;;;;;12.95;10.63;;;;;;;-145.41;100.00;58600.66;5022477;28;20018;-75
2023/06/20 08:22:56;;;;;;;15.48;11.35;;;;;;;-145.41;100.00;58600.66;5016035;28;20045;-75
2023/06/20 08:25:21;;;;;;;11.85;10.65;;;;;;;-145.41;100.00;58600.66;5019083;28;20030;-75
2023/06/20 08:27:46;;;;;;;11.95;10.52;;;;;;;-145.41;100.00;58600.66;5022601;28;20041;-75
2023/06/20 08:30:12;;;;;;;11.15;9.93;;;;;;;-145.41;100.00;58600.66;5023193;28;20084;-76
2023/06/20 08:32:39;;;;;;;11.65;8.23;;;;;;;-145.41;100.00;58600.66;5021880;28;20037;-75
2023/06/20 08:35:06;;;;;;;10.63;8.57;;;;;;;-145.41;100.00;58600.66;5015118;28;20125;-75
2023/06/20 08:37:32;;;;;;;9.18;8.20;;;;;;;-145.41;100.00;58600.66;5019703;28;20030;-76
2023/06/20 08:39:57;;;;;;;13.70;12.30;;;;;;;-145.41;100.00;58600.66;5018827;28;20025;-75
2023/06/20 08:42:22;;;;;;;11.60;10.38;;;;;;;-145.41;100.00;58600.66;5026461;28;20416;-76
2023/06/20 08:44:49;;;;;;;10.23;8.50;;;;;;;-145.41;100.00;58600.66;5019688;28;20413;-76
2023/06/20 08:47:15;;;;;;;10.85;8.43;;;;;;;-145.41;100.00;58600.66;4998963;28;20041;-75
2023/06/20 08:49:41;;;;;;;9.85;8.73;;;;;;;-145.41;100.00;58600.66;4995653;28;20033;-76
2023/06/20 08:52:11;;;;;;;10.30;9.30;;;;;;;-145.41;100.00;58600.66;5021189;28;20120;-75
2023/06/20 08:54:39;;;;;;;11.73;10.63;;;;;;;-145.41;100.00;58600.66;5021142;28;20039;-75
2023/06/20 08:57:06;;;;;;;16.80;13.05;;;;;;;-145.41;100.00;58600.66;5015910;28;20487;-76
2023/06/20 08:59:33;;;;;;;10.02;9.02;;;;;;;-145.41;100.00;58600.66;5010474;28;20088;-75
2023/06/20 09:01:58;;;;;;;9.27;8.27;;;;;;;-145.41;100.00;58600.66;5016806;28;20048;-76
2023/06/20 09:04:27;;;;;;;10.25;9.25;;;;;;;-145.41;100.00;58600.66;5011883;28;20041;-75
2023/06/20 09:06:52;;;;;;;11.20;9.95;;;;;;;-145.41;100.00;58600.66;4996034;28;20489;-75
2023/06/20 09:09:17;;;;;;;14.40;12.95;;;;;;;-145.41;100.00;58600.66;5019642;28;20077;-75
2023/06/20 09:11:52;;;;;;;11.02;9.80;;;;;;;-145.41;100.00;58600.66;5019553;28;20034;-76
2023/06/20 09:14:18;;;;;;;10.50;9.35;;;;;;;-145.41;100.00;58600.66;5016143;28;20037;-75
2023/06/20 09:16:47;;;;;;;10.93;9.82;;;;;;;-145.41;100.00;58600.66;5016098;28;20033;-77
2023/06/20 09:19:12;;;;;;;11.90;9.63;;;;;;;-145.41;100.00;58600.66;5003590;28;20051;-75
2023/06/20 09:21:39;;;;;;;12.65;10.20;;;;;;;-145.41;100.00;58600.66;4998070;28;20543;-75
2023/06/20 09:24:06;;;;;;;13.52;10.60;;;;;;;-145.41;100.00;58600.66;5018270;28;20451;-76
2023/06/20 09:26:32;;;;;;;15.35;12.05;;;;;;;-145.41;100.00;58600.66;5006837;28;20079;-75
2023/06/20 09:29:24;;;;;;;12.98;11.63;;;;;;;-145.41;100.00;58600.66;5017873;28;20033;-76
2023/06/20 09:31:49;;;;;;;;;;;;;;;-145.41;100.00;58600.66;5012393;28;20052;-75
2023/06/20 09:34:18;;;;;;;10.40;9.40;;;;;;;-145.41;100.00;58600.66;5018917;28;19916;-76
2023/06/20 09:36:45;;;;;;;12.30;11.00;;;;;;;-145.41;100.00;58600.66;5018614;28;20037;-76
2023/06/20 09:39:17;;;;;;;11.10;9.90;;;;;;;-145.41;100.00;58600.66;5022633;28;20062;-75
2023/06/20 09:41:51;;;;;;;12.75;10.52;;;;;;;-145.41;100.00;58600.66;5016884;28;20492;-75
2023/06/20 09:44:17;;;;;;;10.90;9.80;;;;;;;-145.41;100.00;58600.66;5014481;28;20065;-76
2023/06/20 09:46:43;;;;;;;11.35;8.98;;;;;;;-145.41;100.00;58600.66;5018636;28;20057;-75
2023/06/20 09:49:11;;;;;;;11.65;10.38;;;;;;;-145.41;100.00;58600.66;5009055;28;20070;-75
2023/06/20 09:51:44;;;;;;;11.48;10.38;;;;;;;-145.41;100.00;58600.66;5006607;28;20037;-75
2023/06/20 09:54:22;;;;;;;11.45;10.25;;;;;;;-145.41;100.00;58600.66;5019677;28;20064;-75
2023/06/20 09:56:57;;;;;;;11.00;9.98;;;;;;;-145.41;100.00;58600.66;4995257;28;20030;-76
2023/06/20 09:59:26;;;;;;;12.02;10.85;;;;;;;-145.41;100.00;58600.66;4991890;28;20029;-76
2023/06/20 10:01:54;;;;;;;12.32;11.02;;;;;;;-145.41;100.00;58600.66;5015641;28;20481;-75
2023/06/20 10:04:20;;;;;;;12.10;10.82;;;;;;;-145.41;100.00;58600.66;5013148;28;20052;-75
2023/06/20 10:06:46;;;;;;;12.65;11.48;;;;;;;-145.41;100.00;58600.66;5021840;28;20061;-76
2023/06/20 10:09:12;;;;;;;12.23;11.13;;;;;;;-145.41;100.00;58600.66;5014687;28;20038;-76
2023/06/20 10:11:40;;;;;;;12.45;11.27;;;;;;;-145.41;100.00;58600.66;5016424;28;20424;-76
2023/06/20 10:14:07;;;;;;;13.23;11.93;;;;;;;-145.41;100.00;58600.66;5014854;28;20042;-75
2023/06/20 10:16:33;;;;;;;14.45;11.65;;;;;;;-145.41;100.00;58600.66;5016455;28;20034;-75
2023/06/20 10:19:14;;;;;;;14.38;12.85;;;;;;;-145.41;100.00;58600.66;5018451;28;20057;-76
2023/06/20 10:21:59;;;;;;;15.30;13.25;;;;;;;-145.41;100.00;58600.66;5008363;28;20029;-75
2023/06/20 10:24:29;;;;;;;14.80;13.02;;;;;;;-145.41;100.00;58600.66;5011703;28;20076;-75
2023/06/20 10:26:59;;;;;;;14.35;12.95;;;;;;;-145.41;100.00;58600.66;5020741;28;20061;-76
2023/06/20 10:29:26;;;;;;;15.00;13.50;;;;;;;-145.41;100.00;58600.66;4997022;28;20041;-76
2023/06/20 10:32:06;;;;;;;15.07;13.57;;;;;;;-145.41;100.00;58600.66;5019972;28;20041;-76
2023/06/20 10:34:36;;;;;;;13.93;12.73;;;;;;;-145.41;100.00;58600.66;5018592;28;20037;-75
2023/06/20 10:37:20;;;;;;;16.67;15.07;;;;;;;-145.41;100.00;58600.66;5021917;28;20041;-76
2023/06/20 10:39:52;;;;;;;17.15;15.55;;;;;;;-145.41;100.00;58600.66;5018404;28;20038;-76
2023/06/20 10:42:41;;;;;;;18.20;16.30;;;;;;;-145.41;100.00;58600.66;5014921;28;20480;-75
2023/06/20 10:45:17;;;;;;;17.75;15.98;;;;;;;-145.41;100.00;58600.66;5012866;28;20049;-76
2023/06/20 10:47:43;;;;;;;18.17;16.55;;;;;;;-145.41;100.00;58600.66;5022330;28;20030;-75
2023/06/20 10:50:10;;;;;;;17.70;16.00;;;;;;;-145.41;100.00;58600.66;5019712;28;20349;-76
2023/06/20 10:52:37;;;;;;;28.50;26.10;;;;;;;-145.41;100.00;58600.66;5015588;28;20057;-75
2023/06/20 10:55:05;;;;;;;18.17;16.30;;;;;;;-145.41;100.00;58600.66;5004407;28;20096;-76
2023/06/20 10:57:30;;;;;;;17.85;16.05;;;;;;;-145.41;100.00;58600.66;5001507;28;20121;-75